Time;durP1;ratioP1;P1;durP2;ratioP2;P2;SDS_P1;SDS_P2;PMS_P1;PMS_P2;Temp;Humidity;BMP_temperature;BMP_pressure;BME280_temperature;BME280_humidity;BME280_pressure;Samples;Min_cycle;Max_cycle;Signal;HPM_P1;HPM_P2
2023/09/27 00:00:09;;;;;;;8.90;8.10;;;14.20;99.90;;;;;;5046801;28;20438;-74
2023/09/27 00:02:36;;;;;;;10.00;7.77;;;14.10;99.90;;;;;;5047585;28;20863;-74
2023/09/27 00:05:06;;;;;;;9.90;7.27;;;14.00;99.90;;;;;;5045191;28;20540;-74
2023/09/27 00:07:33;;;;;;;10.87;7.50;;;13.90;99.90;;;;;;5037691;28;20453;-74
2023/09/27 00:10:00;;;;;;;11.47;7.67;;;13.80;99.90;;;;;;5046730;28;20452;-75
2023/09/27 00:12:27;;;;;;;8.43;7.60;;;13.70;99.90;;;;;;5047631;28;20507;-74
2023/09/27 00:14:55;;;;;;;10.10;7.20;;;13.70;99.90;;;;;;5046984;28;21064;-74
2023/09/27 00:17:24;;;;;;;11.80;7.77;;;13.70;99.90;;;;;;5046417;28;20572;-74
2023/09/27 00:19:50;;;;;;;8.63;7.83;;;13.70;99.90;;;;;;5037919;28;20468;-75
2023/09/27 00:22:17;;;;;;;8.97;8.00;;;13.70;99.90;;;;;;5045810;28;21022;-75
2023/09/27 00:24:44;;;;;;;10.53;7.13;;;13.70;99.90;;;;;;5043450;28;20452;-75
2023/09/27 00:27:11;;;;;;;9.80;7.00;;;13.70;99.90;;;;;;5045550;28;20424;-74
2023/09/27 00:29:38;;;;;;;7.37;6.60;;;13.70;99.90;;;;;;5046645;28;20886;-74
2023/09/27 00:32:05;;;;;;;8.73;7.20;;;13.70;99.90;;;;;;5044821;28;20464;-75
2023/09/27 00:34:33;;;;;;;7.67;6.87;;;13.70;99.90;;;;;;5033938;28;20424;-75
2023/09/27 00:37:00;;;;;;;8.00;7.20;;;13.70;99.90;;;;;;5043194;28;20534;-75
2023/09/27 00:39:26;;;;;;;11.63;7.80;;;13.70;99.90;;;;;;5047178;28;20482;-74
2023/09/27 00:41:53;;;;;;;8.83;7.90;;;13.60;99.90;;;;;;5039869;28;20472;-75
2023/09/27 00:44:20;;;;;;;9.80;8.40;;;13.60;99.90;;;;;;5041864;28;20866;-75
2023/09/27 00:46:47;;;;;;;14.80;8.13;;;13.60;99.90;;;;;;5046679;28;20447;-74
2023/09/27 00:49:15;;;;;;;9.50;7.87;;;13.60;99.90;;;;;;5036617;28;20959;-74
2023/09/27 00:51:44;;;;;;;13.30;7.70;;;13.60;99.90;;;;;;5046326;28;20449;-74
2023/09/27 00:54:12;;;;;;;8.90;7.63;;;13.50;99.90;;;;;;5038036;28;20798;-74
2023/09/27 00:56:39;;;;;;;9.13;7.47;;;13.50;99.90;;;;;;5046160;28;20440;-75
2023/09/27 00:59:07;;;;;;;11.67;8.43;;;13.50;99.90;;;;;;5043752;28;20460;-74
2023/09/27 01:01:34;;;;;;;10.03;7.93;;;13.40;99.90;;;;;;5044460;28;20456;-75
2023/09/27 01:04:01;;;;;;;14.03;8.63;;;13.40;99.90;;;;;;5044249;28;20423;-75
2023/09/27 01:06:27;;;;;;;12.57;7.87;;;13.40;99.90;;;;;;5033865;28;20444;-74
2023/09/27 01:08:55;;;;;;;12.17;7.93;;;13.40;99.90;;;;;;5038885;28;20448;-74
2023/09/27 01:11:24;;;;;;;10.10;8.63;;;13.40;99.90;;;;;;5044584;28;20428;-74
2023/09/27 01:13:51;;;;;;;10.60;8.20;;;13.30;99.90;;;;;;5044737;28;21072;-74
2023/09/27 01:16:18;;;;;;;10.00;8.37;;;13.30;99.90;;;;;;5037661;28;20454;-74
2023/09/27 01:18:44;;;;;;;13.03;7.40;;;13.20;99.90;;;;;;5040609;28;20518;-74
2023/09/27 01:21:11;;;;;;;10.43;8.57;;;13.20;99.90;;;;;;5031331;28;20507;-75
2023/09/27 01:23:41;;;;;;;11.40;8.47;;;13.20;99.90;;;;;;5039878;28;20446;-75
2023/09/27 01:26:09;;;;;;;9.23;8.30;;;13.20;99.90;;;;;;5042320;28;20448;-75
2023/09/27 01:28:37;;;;;;;9.70;7.47;;;13.20;99.90;;;;;;5044687;28;20875;-75
2023/09/27 01:31:04;;;;;;;11.23;7.63;;;13.20;99.90;;;;;;5042436;28;20452;-75
2023/09/27 01:33:30;;;;;;;8.50;7.60;;;13.10;99.90;;;;;;5030138;28;20447;-74
2023/09/27 01:35:59;;;;;;;7.77;6.97;;;13.10;99.90;;;;;;5035443;28;20812;-75
2023/09/27 01:38:26;;;;;;;9.83;8.17;;;13.00;99.90;;;;;;5043813;28;20462;-75
2023/09/27 01:40:54;;;;;;;9.40;8.03;;;13.00;99.90;;;;;;5034390;28;20454;-75
2023/09/27 01:43:20;;;;;;;11.03;7.87;;;13.00;99.90;;;;;;5035415;28;20477;-75
2023/09/27 01:45:47;;;;;;;9.43;8.20;;;12.90;99.90;;;;;;5041397;28;20449;-75
2023/09/27 01:48:14;;;;;;;9.33;8.33;;;12.90;99.90;;;;;;5040262;28;20915;-75
2023/09/27 01:50:41;;;;;;;11.90;8.70;;;12.90;99.90;;;;;;5040291;28;20440;-74
2023/09/27 01:53:08;;;;;;;13.10;9.10;;;12.90;99.90;;;;;;5040533;28;20492;-75
2023/09/27 01:55:35;;;;;;;11.27;8.20;;;12.80;99.90;;;;;;5044352;28;20460;-75
2023/09/27 01:58:03;;;;;;;16.23;10.13;;;12.80;99.90;;;;;;5040783;28;20539;-75
2023/09/27 02:00:31;;;;;;;13.73;10.80;;;12.70;99.90;;;;;;5044003;28;20449;-75
2023/09/27 02:02:58;;;;;;;12.40;10.00;;;12.70;99.90;;;;;;5042096;28;20848;-74
2023/09/27 02:05:26;;;;;;;14.83;10.17;;;12.70;99.90;;;;;;5042698;28;20544;-74
2023/09/27 02:07:53;;;;;;;13.60;10.10;;;12.70;99.90;;;;;;5037326;28;20507;-75
2023/09/27 02:10:20;;;;;;;14.40;10.70;;;12.60;99.90;;;;;;5041932;28;20461;-74
2023/09/27 02:12:47;;;;;;;13.07;11.67;;;12.60;99.90;;;;;;5043900;28;20491;-75
2023/09/27 02:15:16;;;;;;;14.50;11.50;;;12.60;99.90;;;;;;5042316;28;20515;-74
2023/09/27 02:17:44;;;;;;;13.67;10.73;;;12.60;99.90;;;;;;5042688;28;20539;-74
2023/09/27 02:20:12;;;;;;;19.57;12.30;;;12.60;99.90;;;;;;5043756;28;20457;-74
2023/09/27 02:22:40;;;;;;;23.10;14.77;;;12.60;99.90;;;;;;5045638;28;20533;-74
2023/09/27 02:25:10;;;;;;;21.50;15.80;;;12.60;99.90;;;;;;5043627;28;20460;-74
2023/09/27 02:27:37;;;;;;;23.47;15.10;;;12.60;99.90;;;;;;5047003;28;20531;-74
2023/09/27 02:30:05;;;;;;;18.47;13.77;;;12.60;99.90;;;;;;5044098;28;20506;-74
2023/09/27 02:32:33;;;;;;;18.57;13.77;;;12.60;99.90;;;;;;5045281;28;20464;-74
2023/09/27 02:35:00;;;;;;;21.10;14.90;;;12.60;99.90;;;;;;5039386;28;20506;-74
2023/09/27 02:37:27;;;;;;;20.27;15.13;;;12.60;99.90;;;;;;5045461;28;20570;-74
2023/09/27 02:39:54;;;;;;;22.97;16.73;;;12.60;99.90;;;;;;5044931;28;20452;-74
2023/09/27 02:42:20;;;;;;;26.63;16.50;;;12.60;99.90;;;;;;5043035;28;20465;-74
2023/09/27 02:44:48;;;;;;;23.57;16.70;;;12.60;99.90;;;;;;5042941;28;20448;-74
2023/09/27 02:47:15;;;;;;;23.67;16.07;;;12.60;99.90;;;;;;5040006;28;20544;-74
2023/09/27 02:49:43;;;;;;;27.53;16.90;;;12.60;99.90;;;;;;5041195;28;21794;-74
2023/09/27 02:52:11;;;;;;;27.80;17.87;;;12.50;99.90;;;;;;5040266;28;21021;-74
2023/09/27 02:54:38;;;;;;;24.70;17.37;;;12.50;99.90;;;;;;5040804;28;20456;-74
2023/09/27 02:57:04;;;;;;;26.73;17.33;;;12.40;99.90;;;;;;5042834;28;20535;-74
2023/09/27 02:59:32;;;;;;;25.50;17.87;;;12.40;99.90;;;;;;5045048;28;20488;-74
2023/09/27 03:01:59;;;;;;;23.70;16.50;;;12.40;99.90;;;;;;5042792;28;20472;-74
2023/09/27 03:04:26;;;;;;;31.87;16.80;;;12.40;99.90;;;;;;5043966;28;20465;-74
2023/09/27 03:06:55;;;;;;;23.80;16.90;;;12.40;99.90;;;;;;5045066;28;20452;-74
2023/09/27 03:09:22;;;;;;;24.63;16.50;;;12.40;99.90;;;;;;5043312;28;20453;-74
2023/09/27 03:11:49;;;;;;;20.10;15.00;;;12.40;99.90;;;;;;5041839;28;20492;-74
2023/09/27 03:14:17;;;;;;;21.00;15.77;;;12.40;99.90;;;;;;5042247;28;20484;-74
2023/09/27 03:16:44;;;;;;;16.90;12.97;;;12.40;99.90;;;;;;5044771;28;20453;-74
2023/09/27 03:19:10;;;;;;;17.47;11.93;;;12.40;99.90;;;;;;5042037;28;20493;-74
2023/09/27 03:21:38;;;;;;;17.00;13.03;;;12.40;99.90;;;;;;5039782;28;20457;-74
2023/09/27 03:24:08;;;;;;;14.03;10.80;;;12.40;99.90;;;;;;5042287;28;20931;-74
2023/09/27 03:26:34;;;;;;;15.80;11.03;;;12.40;99.90;;;;;;5044605;28;20441;-75
2023/09/27 03:29:01;;;;;;;16.60;11.60;;;12.50;99.90;;;;;;5041980;28;20524;-74
2023/09/27 03:31:28;;;;;;;14.30;11.60;;;12.40;99.90;;;;;;5042718;28;20453;-74
2023/09/27 03:33:55;;;;;;;12.63;10.90;;;12.30;99.90;;;;;;5038124;28;20555;-74
2023/09/27 03:36:22;;;;;;;13.90;10.30;;;12.30;99.90;;;;;;5036898;28;20467;-74
2023/09/27 03:38:48;;;;;;;13.07;10.97;;;12.20;99.90;;;;;;5039307;28;20521;-74
2023/09/27 03:41:16;;;;;;;15.47;11.50;;;12.20;99.90;;;;;;5039098;28;20458;-74
2023/09/27 03:43:43;;;;;;;14.50;11.27;;;12.10;99.90;;;;;;5039596;28;20563;-74
2023/09/27 03:46:11;;;;;;;18.63;13.30;;;12.10;99.90;;;;;;5041217;28;20453;-74
2023/09/27 03:48:38;;;;;;;20.50;13.67;;;12.10;99.90;;;;;;5040816;28;21091;-74
2023/09/27 03:51:05;;;;;;;24.33;14.10;;;12.10;99.90;;;;;;5040412;28;20455;-75
2023/09/27 03:53:33;;;;;;;22.17;14.20;;;12.10;99.90;;;;;;5042472;28;20818;-74
2023/09/27 03:56:00;;;;;;;17.43;13.50;;;12.10;99.90;;;;;;5041597;28;20857;-74
2023/09/27 03:58:28;;;;;;;21.27;14.50;;;12.00;99.90;;;;;;5041279;28;21067;-74
2023/09/27 04:00:55;;;;;;;23.67;14.23;;;12.00;99.90;;;;;;5042270;28;20461;-74
2023/09/27 04:03:21;;;;;;;17.77;13.30;;;12.00;99.90;;;;;;5036919;28;20473;-74
2023/09/27 04:05:48;;;;;;;17.70;12.77;;;11.90;99.90;;;;;;5043537;28;20507;-74
2023/09/27 04:08:17;;;;;;;17.20;12.63;;;11.80;99.90;;;;;;5036111;28;20445;-74
2023/09/27 04:10:44;;;;;;;18.93;11.77;;;11.70;99.90;;;;;;5038633;28;20488;-74
2023/09/27 04:13:10;;;;;;;17.80;12.80;;;11.70;99.90;;;;;;5038274;28;20481;-74
2023/09/27 04:15:38;;;;;;;18.37;12.57;;;11.60;99.90;;;;;;5042270;28;20457;-74
2023/09/27 04:18:05;;;;;;;17.47;12.60;;;11.60;99.90;;;;;;5040644;28;20488;-74
2023/09/27 04:20:32;;;;;;;17.77;12.70;;;11.60;99.90;;;;;;5037643;28;20465;-74
2023/09/27 04:22:59;;;;;;;18.73;12.03;;;11.60;99.90;;;;;;5039129;28;20843;-74
2023/09/27 04:25:26;;;;;;;17.83;12.20;;;11.60;99.90;;;;;;5040298;28;20464;-74
2023/09/27 04:27:53;;;;;;;16.63;11.93;;;11.60;99.90;;;;;;5042178;28;20582;-74
2023/09/27 04:30:22;;;;;;;16.60;11.77;;;11.60;99.90;;;;;;5034364;28;20457;-74
2023/09/27 04:32:51;;;;;;;15.30;12.10;;;11.60;99.90;;;;;;5038382;28;20530;-74
2023/09/27 04:35:19;;;;;;;14.20;11.23;;;11.60;99.90;;;;;;5038319;28;20492;-74
2023/09/27 04:37:46;;;;;;;13.73;12.10;;;11.60;99.90;;;;;;5038211;28;20456;-74
2023/09/27 04:40:13;;;;;;;13.13;11.73;;;11.50;99.90;;;;;;5038596;28;21017;-74
2023/09/27 04:42:40;;;;;;;14.70;11.10;;;11.50;99.90;;;;;;5041226;28;20480;-74
2023/09/27 04:45:09;;;;;;;15.00;11.57;;;11.50;99.90;;;;;;5038929;28;20461;-74
2023/09/27 04:47:35;;;;;;;14.20;11.27;;;11.50;99.90;;;;;;5040692;28;20458;-74
2023/09/27 04:50:05;;;;;;;14.90;11.40;;;11.50;99.90;;;;;;5039845;28;20503;-74
2023/09/27 04:52:32;;;;;;;13.40;10.87;;;11.50;99.90;;;;;;5039544;28;20508;-74
2023/09/27 04:54:58;;;;;;;14.97;11.57;;;11.50;99.90;;;;;;5040338;28;20452;-74
2023/09/27 04:57:25;;;;;;;13.83;11.73;;;11.50;99.90;;;;;;5038540;28;20457;-74
2023/09/27 04:59:52;;;;;;;18.23;13.67;;;11.50;99.90;;;;;;5040550;28;20542;-74
2023/09/27 05:02:19;;;;;;;17.67;12.13;;;11.50;99.90;;;;;;5034552;28;20512;-74
2023/09/27 05:04:47;;;;;;;13.53;11.67;;;11.50;99.90;;;;;;5037131;28;20457;-74
2023/09/27 05:07:15;;;;;;;14.43;11.50;;;11.50;99.90;;;;;;5036923;28;20453;-73
2023/09/27 05:09:42;;;;;;;16.10;11.47;;;11.50;99.90;;;;;;5040177;28;20539;-73
2023/09/27 05:12:08;;;;;;;16.47;11.87;;;11.50;99.90;;;;;;5037092;28;20489;-73
2023/09/27 05:14:35;;;;;;;17.23;11.73;;;11.60;99.90;;;;;;5038944;28;20534;-73
2023/09/27 05:17:02;;;;;;;16.40;12.57;;;11.60;99.90;;;;;;5037374;28;20503;-73
2023/09/27 05:19:28;;;;;;;14.70;12.60;;;11.60;99.90;;;;;;5033528;28;20481;-73
2023/09/27 05:21:55;;;;;;;16.37;12.77;;;11.50;99.90;;;;;;5030840;28;20476;-73
2023/09/27 05:24:24;;;;;;;15.33;11.90;;;11.60;99.90;;;;;;5034429;28;20465;-75
2023/09/27 05:26:50;;;;;;;17.63;12.77;;;11.60;99.90;;;;;;5036861;28;20631;-73
2023/09/27 05:29:17;;;;;;;19.17;12.63;;;11.50;99.90;;;;;;5036716;28;20449;-74
2023/09/27 05:31:44;;;;;;;18.33;12.77;;;11.50;99.90;;;;;;5037847;28;20862;-74
2023/09/27 05:34:11;;;;;;;19.73;12.73;;;11.60;99.90;;;;;;5031298;28;20507;-74
2023/09/27 05:36:38;;;;;;;19.43;13.20;;;11.60;99.90;;;;;;5034781;28;20457;-74
2023/09/27 05:39:08;;;;;;;17.40;13.13;;;11.60;99.90;;;;;;5037413;28;20492;-74
2023/09/27 05:41:36;;;;;;;15.77;12.77;;;11.60;99.90;;;;;;5037440;28;20528;-74
2023/09/27 05:44:04;;;;;;;21.30;12.33;;;11.60;99.90;;;;;;5036631;28;20517;-74
2023/09/27 05:46:33;;;;;;;16.07;12.70;;;11.70;99.90;;;;;;5036279;28;20445;-74
2023/09/27 05:49:01;;;;;;;19.03;13.60;;;11.70;99.90;;;;;;5037881;28;20956;-73
2023/09/27 05:51:29;;;;;;;23.60;12.93;;;11.80;99.90;;;;;;5033046;28;20473;-73
2023/09/27 05:53:55;;;;;;;23.53;13.37;;;11.80;99.90;;;;;;5038063;28;20548;-74
2023/09/27 05:56:22;;;;;;;18.97;12.30;;;11.90;99.90;;;;;;5032391;28;20453;-74
2023/09/27 05:58:51;;;;;;;14.40;11.90;;;11.90;99.90;;;;;;5038811;28;20476;-74
2023/09/27 06:01:19;;;;;;;13.27;11.00;;;12.00;99.90;;;;;;5032851;28;20546;-73
2023/09/27 06:03:46;;;;;;;12.80;9.50;;;12.10;99.90;;;;;;5038223;28;20476;-74
2023/09/27 06:06:13;;;;;;;12.03;9.50;;;12.30;99.90;;;;;;5031188;28;20552;-73
2023/09/27 06:08:40;;;;;;;11.80;8.83;;;12.70;99.90;;;;;;5036868;28;20528;-74
2023/09/27 06:11:07;;;;;;;15.90;9.10;;;13.00;99.90;;;;;;5035289;28;20460;-74
2023/09/27 06:13:33;;;;;;;9.90;8.90;;;13.50;99.90;;;;;;5034712;28;20594;-74
2023/09/27 06:16:02;;;;;;;12.40;9.17;;;14.00;99.90;;;;;;5036896;28;20491;-74
2023/09/27 06:18:28;;;;;;;15.60;8.07;;;14.40;99.90;;;;;;5034989;28;20488;-74
2023/09/27 06:20:55;;;;;;;10.90;9.17;;;14.80;99.90;;;;;;5035637;28;20538;-74
2023/09/27 06:23:21;;;;;;;13.33;8.67;;;15.20;99.90;;;;;;5034413;28;20508;-74
2023/09/27 06:25:48;;;;;;;10.13;8.97;;;15.50;99.90;;;;;;5036286;28;20481;-74
2023/09/27 06:28:15;;;;;;;16.03;9.50;;;15.90;99.90;;;;;;5024075;28;20453;-73
2023/09/27 06:30:42;;;;;;;11.70;8.90;;;16.10;99.90;;;;;;5034734;28;21006;-74
2023/09/27 06:33:10;;;;;;;13.83;8.70;;;16.40;99.90;;;;;;5028649;28;20510;-74
2023/09/27 06:35:37;;;;;;;10.13;8.40;;;16.70;99.90;;;;;;5035214;28;20423;-74
2023/09/27 06:38:05;;;;;;;13.53;8.13;;;17.00;99.90;;;;;;5035605;28;20419;-73
2023/09/27 06:40:32;;;;;;;11.67;8.97;;;17.30;99.90;;;;;;5034518;28;20467;-74
2023/09/27 06:42:59;;;;;;;14.50;9.47;;;17.60;99.90;;;;;;5033034;28;20450;-73
2023/09/27 06:45:27;;;;;;;10.57;8.23;;;17.90;99.90;;;;;;5034427;28;20894;-74
2023/09/27 06:47:53;;;;;;;14.43;9.37;;;18.00;99.90;;;;;;5034010;28;20430;-74
2023/09/27 06:50:22;;;;;;;11.80;8.90;;;18.00;99.90;;;;;;5034303;28;20441;-74
2023/09/27 06:52:48;;;;;;;13.73;8.90;;;17.70;99.90;;;;;;5036174;28;20465;-74
2023/09/27 06:55:16;;;;;;;10.70;8.33;;;17.70;99.90;;;;;;5033575;28;20411;-73
2023/09/27 06:57:44;;;;;;;8.60;7.40;;;18.00;99.90;;;;;;5035000;28;20527;-74
2023/09/27 07:00:18;;;;;;;11.17;8.67;;;18.60;99.90;;;;;;5035902;28;20493;-74
2023/09/27 07:02:46;;;;;;;14.27;8.13;;;19.10;99.90;;;;;;5038963;28;20525;-74
2023/09/27 07:05:12;;;;;;;9.53;8.57;;;19.60;99.90;;;;;;5037030;28;20476;-74
2023/09/27 07:07:40;;;;;;;12.97;8.70;;;20.10;99.90;;;;;;5038079;28;20936;-74
2023/09/27 07:10:08;;;;;;;15.13;9.50;;;20.20;99.90;;;;;;5037592;28;20440;-74
2023/09/27 07:12:35;;;;;;;12.13;9.87;;;20.30;99.90;;;;;;5036316;28;20484;-74
2023/09/27 07:15:04;;;;;;;12.93;10.37;;;20.80;99.90;;;;;;5035692;28;20484;-74
2023/09/27 07:17:31;;;;;;;11.10;9.83;;;21.10;99.90;;;;;;5036885;28;20457;-74
2023/09/27 07:19:58;;;;;;;11.60;10.40;;;21.00;99.90;;;;;;5036013;28;20711;-74
2023/09/27 07:22:24;;;;;;;14.07;9.20;;;21.10;99.90;;;;;;5035949;28;20465;-74
2023/09/27 07:24:52;;;;;;;15.77;10.80;;;21.10;99.90;;;;;;5038517;28;20453;-74
2023/09/27 07:27:19;;;;;;;12.33;10.20;;;21.00;99.90;;;;;;5035556;28;20456;-74
2023/09/27 07:29:47;;;;;;;11.60;9.90;;;21.00;99.90;;;;;;5037946;28;20890;-74
2023/09/27 07:32:15;;;;;;;20.90;11.67;;;20.80;99.90;;;;;;5030134;28;20543;-74
2023/09/27 07:34:42;;;;;;;17.40;11.70;;;20.90;99.90;;;;;;5036297;28;20536;-75
2023/09/27 07:37:09;;;;;;;13.83;10.40;;;20.60;99.90;;;;;;5035358;28;20465;-74
2023/09/27 07:39:37;;;;;;;16.50;11.03;;;20.70;99.90;;;;;;5040342;28;20490;-74
2023/09/27 07:42:06;;;;;;;17.93;12.33;;;20.80;99.90;;;;;;5035813;28;20566;-74
2023/09/27 07:44:33;;;;;;;18.10;12.40;;;20.70;99.90;;;;;;5033598;28;20446;-74
2023/09/27 07:46:59;;;;;;;18.73;11.30;;;20.50;99.90;;;;;;5035483;28;20506;-74
2023/09/27 07:49:26;;;;;;;13.70;11.50;;;20.50;99.90;;;;;;5035542;28;20549;-74
2023/09/27 07:51:53;;;;;;;20.93;12.40;;;20.50;99.90;;;;;;5036133;28;20535;-74
2023/09/27 07:54:21;;;;;;;17.63;12.90;;;20.60;99.90;;;;;;5035523;28;20500;-74
2023/09/27 07:56:48;;;;;;;17.60;13.00;;;20.60;99.90;;;;;;5042677;28;20509;-74
2023/09/27 07:59:17;;;;;;;18.33;13.20;;;20.60;99.90;;;;;;5029219;28;20485;-74
2023/09/27 08:01:44;;;;;;;17.87;12.60;;;20.60;99.90;;;;;;5035591;28;21166;-73
2023/09/27 08:04:12;;;;;;;16.47;13.43;;;20.80;99.90;;;;;;5035038;28;20452;-74
2023/09/27 08:06:39;;;;;;;15.47;12.80;;;20.90;99.90;;;;;;5035311;28;20547;-74
2023/09/27 08:09:07;;;;;;;25.70;13.67;;;20.90;99.90;;;;;;5040243;28;20440;-73
2023/09/27 08:11:33;;;;;;;17.83;13.70;;;20.30;99.90;;;;;;5032492;28;20861;-74
2023/09/27 08:14:00;;;;;;;15.30;13.03;;;20.40;99.90;;;;;;5028522;28;20996;-74
2023/09/27 08:16:29;;;;;;;19.97;14.40;;;20.50;99.90;;;;;;5031799;28;20450;-74
2023/09/27 08:18:56;;;;;;;16.40;13.23;;;20.80;99.90;;;;;;5031578;28;20544;-74
2023/09/27 08:21:23;;;;;;;17.80;13.93;;;21.00;99.90;;;;;;5034126;28;20454;-74
2023/09/27 08:23:52;;;;;;;15.03;12.80;;;21.40;99.90;;;;;;5033999;28;20543;-74
2023/09/27 08:26:19;;;;;;;18.80;13.10;;;21.60;99.90;;;;;;5033843;28;20536;-74
2023/09/27 08:28:46;;;;;;;18.63;10.80;;;21.50;99.90;;;;;;5034977;28;20511;-74
2023/09/27 08:31:12;;;;;;;19.57;11.60;;;21.60;99.90;;;;;;5033063;28;20952;-74
2023/09/27 08:33:41;;;;;;;12.73;11.20;;;21.70;99.90;;;;;;5032424;28;20468;-74
2023/09/27 08:36:08;;;;;;;13.97;11.00;;;21.80;99.90;;;;;;5034175;28;20448;-74
2023/09/27 08:38:34;;;;;;;12.20;9.10;;;22.00;99.90;;;;;;5031765;28;20442;-74
2023/09/27 08:41:01;;;;;;;10.23;8.80;;;22.30;99.90;;;;;;5034140;28;20603;-74
2023/09/27 08:43:29;;;;;;;11.50;10.30;;;22.50;99.90;;;;;;5030491;28;20497;-74
2023/09/27 08:45:57;;;;;;;13.57;10.60;;;22.40;99.90;;;;;;5033379;28;20457;-74
2023/09/27 08:48:25;;;;;;;14.73;9.70;;;21.90;99.90;;;;;;5033175;28;20457;-75
2023/09/27 08:50:55;;;;;;;13.43;10.90;;;21.60;99.90;;;;;;5033730;28;20937;-70
2023/09/27 08:53:22;;;;;;;18.73;12.90;;;21.30;99.90;;;;;;5030666;28;20811;-70
2023/09/27 08:55:49;;;;;;;16.13;12.60;;;21.30;99.90;;;;;;5033897;28;21094;-70
2023/09/27 08:58:16;;;;;;;17.50;12.10;;;21.40;99.90;;;;;;5025401;28;20800;-70
2023/09/27 09:00:43;;;;;;;13.90;12.40;;;22.00;99.90;;;;;;5033211;28;20493;-70
2023/09/27 09:03:10;;;;;;;18.20;11.17;;;22.30;99.90;;;;;;5032569;28;20484;-70
2023/09/27 09:05:39;;;;;;;14.20;11.40;;;22.20;99.90;;;;;;5029626;28;20936;-70
2023/09/27 09:08:09;;;;;;;12.70;10.50;;;22.20;99.90;;;;;;5032321;28;20468;-70
2023/09/27 09:10:37;;;;;;;13.37;11.43;;;22.10;99.90;;;;;;5032032;28;21002;-70
2023/09/27 09:13:05;;;;;;;12.17;9.23;;;21.90;99.90;;;;;;5032751;28;20530;-70
2023/09/27 09:15:35;;;;;;;11.97;10.10;;;22.00;99.90;;;;;;5031944;28;20442;-71
2023/09/27 09:18:06;;;;;;;12.63;10.00;;;22.40;99.90;;;;;;5032338;28;20444;-70
2023/09/27 09:20:33;;;;;;;12.67;10.00;;;22.50;99.90;;;;;;5031418;28;21021;-70
2023/09/27 09:23:04;;;;;;;16.60;10.50;;;22.80;99.90;;;;;;5030704;28;20550;-70
2023/09/27 09:25:42;;;;;;;10.50;8.77;;;23.10;99.90;;;;;;5031455;28;20445;-70
2023/09/27 09:28:08;;;;;;;12.70;9.60;;;23.30;99.90;;;;;;5031380;28;20866;-71
2023/09/27 09:30:36;;;;;;;12.83;9.77;;;23.70;99.90;;;;;;5030745;28;20437;-70
2023/09/27 09:33:03;;;;;;;13.30;9.73;;;24.00;99.90;;;;;;5030929;28;20507;-70
2023/09/27 09:35:31;;;;;;;15.40;9.77;;;24.20;99.90;;;;;;5030908;28;20544;-70
2023/09/27 09:37:59;;;;;;;10.70;9.60;;;23.90;99.90;;;;;;5030458;28;20573;-71
2023/09/27 09:40:26;;;;;;;10.90;9.37;;;24.10;99.90;;;;;;5030459;28;20493;-71
2023/09/27 09:42:57;;;;;;;11.83;9.37;;;24.30;99.90;;;;;;5028017;28;20478;-70
2023/09/27 09:45:24;;;;;;;12.47;9.03;;;24.70;99.90;;;;;;5030932;28;20457;-70
2023/09/27 09:47:51;;;;;;;9.87;8.50;;;25.20;99.90;;;;;;5026100;28;20468;-70
2023/09/27 09:50:18;;;;;;;12.73;8.40;;;25.50;99.90;;;;;;5030436;28;20540;-71
2023/09/27 09:52:53;;;;;;;11.27;7.60;;;25.50;99.90;;;;;;5029697;28;20562;-70
2023/09/27 09:55:23;;;;;;;9.70;8.00;;;25.50;99.90;;;;;;5023715;28;20951;-70
2023/09/27 09:58:05;;;;;;;12.50;8.00;;;25.40;99.90;;;;;;5031187;28;20453;-70
2023/09/27 10:00:35;;;;;;;13.17;8.13;;;25.70;99.90;;;;;;5030293;28;20542;-70
2023/09/27 10:03:04;;;;;;;14.10;8.50;;;25.90;99.90;;;;;;5029602;28;20560;-70
2023/09/27 10:05:37;;;;;;;18.33;8.90;;;25.80;99.90;;;;;;5030144;28;20464;-70
2023/09/27 10:08:05;;;;;;;10.97;8.03;;;25.50;99.90;;;;;;5030314;28;20514;-70
2023/09/27 10:10:32;;;;;;;9.70;8.20;;;25.60;99.90;;;;;;5030168;28;20445;-70
2023/09/27 10:13:03;;;;;;;8.47;7.20;;;25.60;99.90;;;;;;5030253;28;20481;-70
2023/09/27 10:15:33;;;;;;;9.60;7.97;;;25.20;99.90;;;;;;5029711;28;20449;-70
2023/09/27 10:18:33;;;;;;;11.17;7.90;;;24.90;99.90;;;;;;5030438;28;20456;-70
2023/09/27 10:21:08;;;;;;;9.60;7.77;;;24.80;99.90;;;;;;5027689;28;20516;-70
2023/09/27 10:23:36;;;;;;;10.60;8.00;;;24.40;99.90;;;;;;5029972;28;20785;-70
2023/09/27 10:26:19;;;;;;;7.83;6.90;;;24.10;99.90;;;;;;5029635;28;20507;-70
2023/09/27 10:29:12;;;;;;;9.03;7.10;;;24.20;99.90;;;;;;5030058;28;20456;-70
2023/09/27 10:32:19;;;;;;;9.40;7.17;;;24.80;99.90;;;;;;5024571;28;20446;-71
2023/09/27 10:34:46;;;;;;;8.53;6.80;;;25.40;99.90;;;;;;5031723;28;20448;-70
2023/09/27 10:37:13;;;;;;;6.40;5.77;;;25.50;99.90;;;;;;5033460;28;20515;-70
2023/09/27 10:39:40;;;;;;;7.57;6.30;;;25.30;99.90;;;;;;5032913;28;20503;-70
2023/09/27 10:42:07;;;;;;;7.27;6.00;;;25.10;99.90;;;;;;5032388;28;20483;-70
2023/09/27 10:44:37;;;;;;;8.87;5.50;;;24.90;99.90;;;;;;5028412;28;20890;-70
2023/09/27 10:47:05;;;;;;;6.43;5.80;;;24.70;99.90;;;;;;5033005;28;20886;-70
2023/09/27 10:49:38;;;;;;;7.50;6.03;;;24.60;99.90;;;;;;5032788;28;20451;-70
2023/09/27 10:52:09;;;;;;;11.20;5.20;;;24.40;99.90;;;;;;5032435;28;20849;-70
2023/09/27 10:54:35;;;;;;;9.63;5.60;;;24.50;99.90;;;;;;5032185;28;20491;-70
2023/09/27 10:57:03;;;;;;;5.97;5.37;;;24.60;99.90;;;;;;5024476;28;20943;-70
2023/09/27 10:59:30;;;;;;;6.83;5.37;;;25.00;99.90;;;;;;5032717;28;20503;-70
2023/09/27 11:01:59;;;;;;;5.30;4.90;;;25.30;99.90;;;;;;5024769;28;20498;-70
2023/09/27 11:04:27;;;;;;;7.00;4.60;;;25.60;99.90;;;;;;5032296;28;20460;-70
2023/09/27 11:06:55;;;;;;;6.30;5.70;;;25.90;99.90;;;;;;5040710;28;20457;-70
2023/09/27 11:09:23;;;;;;;8.80;5.30;;;26.30;99.90;;;;;;5051501;28;20540;-70
2023/09/27 11:11:51;;;;;;;5.67;5.23;;;26.30;99.90;;;;;;5042969;28;20497;-70
2023/09/27 11:14:29;;;;;;;6.20;4.60;;;26.10;99.90;;;;;;5051373;28;21016;-70
2023/09/27 11:16:58;;;;;;;5.03;4.53;;;26.00;99.90;;;;;;5049878;28;20458;-70
2023/09/27 11:19:29;;;;;;;6.07;4.70;;;25.90;99.90;;;;;;5043533;28;20453;-70
2023/09/27 11:21:56;;;;;;;6.53;4.20;;;26.00;99.90;;;;;;5047009;28;20488;-70
2023/09/27 11:24:23;;;;;;;6.50;4.80;;;26.20;99.90;;;;;;5050706;28;20814;-70
2023/09/27 11:26:50;;;;;;;4.83;4.43;;;26.10;99.90;;;;;;5047899;28;20457;-70
2023/09/27 11:29:23;;;;;;;4.63;4.10;;;26.00;99.90;;;;;;5042408;28;20495;-70
2023/09/27 11:31:56;;;;;;;4.53;4.00;;;26.00;99.90;;;;;;5050306;28;20457;-70
2023/09/27 11:34:24;;;;;;;6.23;4.53;;;26.30;99.90;;;;;;5043112;28;20527;-70
2023/09/27 11:36:53;;;;;;;10.43;4.20;;;26.30;99.90;;;;;;5049757;28;20506;-71
2023/09/27 11:39:20;;;;;;;6.30;4.80;;;26.20;99.90;;;;;;5050363;28;20536;-71
2023/09/27 11:41:47;;;;;;;4.67;4.27;;;26.10;99.90;;;;;;5045251;28;20492;-71
2023/09/27 11:44:21;;;;;;;4.93;4.53;;;25.90;99.90;;;;;;5045732;28;20490;-71
2023/09/27 11:46:49;;;;;;;5.63;4.27;;;25.80;99.90;;;;;;5049726;28;20445;-71
2023/09/27 11:49:17;;;;;;;4.43;4.03;;;25.60;99.90;;;;;;5047741;28;20900;-70
2023/09/27 11:51:45;;;;;;;10.80;4.60;;;25.50;99.90;;;;;;5040253;28;20541;-70
2023/09/27 11:54:13;;;;;;;7.23;3.23;;;25.60;99.90;;;;;;5046005;28;20453;-70
2023/09/27 11:56:40;;;;;;;4.27;3.87;;;25.40;99.90;;;;;;5041891;28;20480;-70
2023/09/27 11:59:07;;;;;;;4.90;3.90;;;25.60;99.90;;;;;;5049025;28;20448;-70
2023/09/27 12:01:34;;;;;;;4.70;4.20;;;25.70;99.90;;;;;;5047312;28;20826;-70
2023/09/27 12:04:01;;;;;;;4.87;4.40;;;26.00;99.90;;;;;;5044574;28;20532;-70
2023/09/27 12:06:29;;;;;;;4.97;4.37;;;26.10;99.90;;;;;;5049726;28;20887;-70
2023/09/27 12:08:57;;;;;;;4.90;4.20;;;26.30;99.90;;;;;;5038261;28;20519;-70
2023/09/27 12:11:23;;;;;;;6.37;4.63;;;26.00;99.90;;;;;;5040902;28;20460;-70
2023/09/27 12:13:51;;;;;;;6.70;4.93;;;25.90;99.90;;;;;;5049000;28;20480;-70
2023/09/27 12:16:20;;;;;;;5.67;4.50;;;26.00;99.90;;;;;;5048775;28;21779;-70
2023/09/27 12:18:47;;;;;;;5.00;4.40;;;26.10;99.90;;;;;;5049602;28;20453;-71
2023/09/27 12:21:14;;;;;;;7.33;4.80;;;26.50;99.90;;;;;;5048072;28;20554;-71
2023/09/27 12:23:41;;;;;;;6.97;4.83;;;26.40;99.90;;;;;;5048711;28;20518;-71
2023/09/27 12:26:10;;;;;;;5.10;4.30;;;26.20;99.90;;;;;;5045988;28;20578;-71
2023/09/27 12:28:37;;;;;;;6.07;4.80;;;26.10;99.90;;;;;;5048600;28;20449;-71
2023/09/27 12:31:05;;;;;;;10.57;4.83;;;26.00;99.90;;;;;;5044412;28;20532;-70
2023/09/27 12:33:32;;;;;;;7.80;4.70;;;26.00;99.90;;;;;;5045170;28;20544;-71
2023/09/27 12:35:59;;;;;;;4.83;4.40;;;25.90;99.90;;;;;;5044154;28;20452;-71
2023/09/27 12:38:26;;;;;;;5.60;5.03;;;25.70;99.90;;;;;;5041383;28;20950;-71